Agat, Guam
Current Conditions -  °F | °C
As of 2:02 PM on Wednesday 28 Jan 2015 (Local Time) from PGUM Reporting Station
Scattered Clouds Scattered Clouds  
Wind Chill: 29°   Ceiling: Unl
Heat Index: 33°   Visibility: 10mi
Dew Point: 23°   Wind: 10mph
Humidity: 70%   Direction: 100°E
Pressure: 29.81"   Gusts: NA
Location:  13.38°N, 144.65°E
Report Text: PGUM 280402Z 10009KT 10SM SCT021 29/23 A2981 RMK AO2
Loading
Personal Weather Stations






























Interactive Weather Map New forecast layout! Learn more

10-Day Weather Forecast

Advertisements
Track Severe Weather on mobile